Time;durP1;ratioP1;P1;durP2;ratioP2;P2;SDS_P1;SDS_P2;PMS_P1;PMS_P2;Temp;Humidity;BMP_temperature;BMP_pressure;BME280_temperature;BME280_humidity;BME280_pressure;Samples;Min_cycle;Max_cycle;Signal;HPM_P1;HPM_P2
2022/04/04 00:03:49;;;;;;;9.57;8.57;;;;;;;;;;4921516;29;20226;-90
2022/04/04 00:06:33;;;;;;;8.00;7.27;;;;;;;;;;4965613;28;20276;-91
2022/04/04 00:09:31;;;;;;;9.17;8.23;;;;;;;;;;5034427;28;20202;-89
2022/04/04 00:15:17;;;;;;;8.93;8.03;;;;;;;;;;5026626;28;20211;-90
2022/04/04 00:31:26;;;;;;;9.63;8.03;;;;;;;;;;4814727;29;20215;-91
2022/04/04 00:37:51;;;;;;;7.03;6.43;;;;;;;;;;4805044;29;20260;-92
2022/04/04 00:40:57;;;;;;;7.93;7.13;;;;;;;;;;4804261;29;20299;-89
2022/04/04 01:15:58;;;;;;;8.27;6.70;;;;;;;;;;4750503;30;20591;-90
2022/04/04 01:18:30;;;;;;;5.57;5.07;;;;;;;;;;4750103;30;20210;-90
2022/04/04 01:21:00;;;;;;;7.37;6.33;;;;;;;;;;4748368;30;20245;-90
2022/04/04 01:26:58;;;;;;;7.07;6.20;;;;;;;;;;4741293;30;20239;-89
2022/04/04 01:29:50;;;;;;;8.07;5.43;;;;;;;;;;4804296;29;20212;-89
2022/04/04 01:32:29;;;;;;;7.60;6.37;;;;;;;;;;4805236;29;20202;-89
2022/04/04 01:36:12;;;;;;;5.63;5.13;;;;;;;;;;4840943;29;20225;-91
2022/04/04 01:38:54;;;;;;;7.40;6.70;;;;;;;;;;4840187;29;20311;-90
2022/04/04 01:44:56;;;;;;;6.70;6.10;;;;;;;;;;4888636;29;20283;-90
2022/04/04 02:01:35;;;;;;;5.90;5.27;;;;;;;;;;4850614;29;20210;-89
2022/04/04 02:21:17;;;;;;;4.80;4.30;;;;;;;;;;4787275;29;20227;-90
2022/04/04 02:45:33;;;;;;;3.77;3.47;;;;;;;;;;4824959;29;20314;-90
2022/04/04 02:58:26;;;;;;;4.87;4.47;;;;;;;;;;4787341;30;20761;-89
2022/04/04 03:01:29;;;;;;;3.07;2.77;;;;;;;;;;4779177;30;20208;-90
2022/04/04 03:04:02;;;;;;;3.43;2.73;;;;;;;;;;4827136;29;20589;-90
2022/04/04 03:07:10;;;;;;;3.13;2.93;;;;;;;;;;4877016;29;20204;-90
2022/04/04 03:13:33;;;;;;;3.43;3.13;;;;;;;;;;4898241;29;20206;-89
2022/04/04 03:22:12;;;;;;;2.20;2.10;;;;;;;;;;4966020;28;20713;-88
2022/04/04 03:24:47;;;;;;;3.03;2.83;;;;;;;;;;4974083;28;20236;-88
2022/04/04 03:27:18;;;;;;;2.73;2.53;;;;;;;;;;4974608;28;20287;-89
2022/04/04 03:30:20;;;;;;;2.57;2.37;;;;;;;;;;4974301;28;20201;-90
2022/04/04 03:39:29;;;;;;;;;;;;;;;;;;;;;
2022/04/04 03:42:56;;;;;;;3.97;3.30;;;;;;;;;;4954888;29;20337;-91
2022/04/04 03:51:15;;;;;;;4.30;2.77;;;;;;;;;;4877145;29;20686;-88
2022/04/04 03:56:33;;;;;;;2.60;2.40;;;;;;;;;;4876175;29;20269;-91
2022/04/04 03:59:12;;;;;;;2.47;2.27;;;;;;;;;;4879118;29;20216;-89
2022/04/04 04:01:48;;;;;;;2.33;2.13;;;;;;;;;;4879231;29;20264;-90
2022/04/04 04:04:34;;;;;;;3.00;2.77;;;;;;;;;;4876419;29;20229;-88
2022/04/04 04:07:10;;;;;;;2.57;2.37;;;;;;;;;;4877274;29;20299;-89
2022/04/04 04:09:38;;;;;;;2.63;2.43;;;;;;;;;;4877297;29;20240;-88
2022/04/04 04:15:42;;;;;;;58.00;31.20;;;;;;;;;;4870974;29;20685;-88
2022/04/04 04:18:33;;;;;;;13.27;11.37;;;;;;;;;;4878080;29;20573;-88
2022/04/04 04:21:00;;;;;;;12.80;8.97;;;;;;;;;;4905048;29;20668;-87
2022/04/04 04:23:28;;;;;;;8.33;7.27;;;;;;;;;;4934446;29;20686;-86
2022/04/04 04:26:13;;;;;;;13.87;10.23;;;;;;;;;;4997472;28;20655;-89
2022/04/04 04:28:53;;;;;;;18.27;12.13;;;;;;;;;;5031563;28;20268;-89
2022/04/04 04:31:21;;;;;;;23.83;14.70;;;;;;;;;;5033646;28;20198;-89
2022/04/04 04:34:03;;;;;;;46.20;26.60;;;;;;;;;;5033540;28;20705;-87
2022/04/04 04:36:44;;;;;;;60.97;40.00;;;;;;;;;;5033700;28;20194;-90
2022/04/04 04:45:36;;;;;;;;;;;;;;;;;;;;;
2022/04/04 04:48:15;;;;;;;8.03;6.23;;;;;;;;;;5003762;28;20204;-89
2022/04/04 05:06:09;;;;;;;8.83;5.70;;;;;;;;;;5032843;28;20201;-88
2022/04/04 05:27:01;;;;;;;4.37;3.90;;;;;;;;;;4840840;29;20230;-90
2022/04/04 06:04:32;;;;;;;4.60;4.20;;;;;;;;;;4648561;30;20745;-90
2022/04/04 06:07:30;;;;;;;4.33;3.93;;;;;;;;;;4663481;30;20225;-88
2022/04/04 06:13:10;;;;;;;5.27;4.87;;;;;;;;;;4719855;30;20378;-89
2022/04/04 06:15:37;;;;;;;5.80;5.23;;;;;;;;;;4731890;30;20597;-89
2022/04/04 06:18:21;;;;;;;5.17;4.63;;;;;;;;;;4791996;29;20678;-89
2022/04/04 06:20:52;;;;;;;5.90;5.40;;;;;;;;;;4802281;29;20647;-90
2022/04/04 06:23:33;;;;;;;5.40;4.83;;;;;;;;;;4849151;29;20280;-88
2022/04/04 06:26:28;;;;;;;4.27;3.90;;;;;;;;;;4925088;29;20246;-88
2022/04/04 06:29:22;;;;;;;9.03;6.50;;;;;;;;;;4932912;29;20199;-89
2022/04/04 06:32:17;;;;;;;5.73;4.83;;;;;;;;;;4961000;28;20771;-88
2022/04/04 06:35:23;;;;;;;6.60;6.00;;;;;;;;;;4972120;28;20353;-89
2022/04/04 06:38:43;;;;;;;5.40;4.83;;;;;;;;;;4912249;29;20203;-87
2022/04/04 06:41:55;;;;;;;;;;;;;;;;;;;;;
2022/04/04 06:44:47;;;;;;;10.00;5.20;;;;;;;;;;4952352;28;20210;-90
2022/04/04 06:47:43;;;;;;;6.97;5.53;;;;;;;;;;4971711;28;20211;-90
2022/04/04 06:50:21;;;;;;;5.80;4.80;;;;;;;;;;4971447;28;20272;-89
2022/04/04 06:53:14;;;;;;;5.13;4.37;;;;;;;;;;4973560;28;20200;-91
2022/04/04 07:00:15;;;;;;;4.17;3.87;;;;;;;;;;4918988;29;20211;-90
2022/04/04 07:11:51;;;;;;;5.27;4.77;;;;;;;;;;4888431;29;20216;-89
2022/04/04 07:14:21;;;;;;;5.10;4.70;;;;;;;;;;4914860;28;20207;-90
2022/04/04 07:16:52;;;;;;;4.60;4.20;;;;;;;;;;4973839;28;20295;-88
2022/04/04 07:22:39;;;;;;;5.47;5.00;;;;;;;;;;4965597;28;20243;-88
2022/04/04 07:31:22;;;;;;;6.67;4.50;;;;;;;;;;4935314;28;20209;-89
2022/04/04 07:36:46;;;;;;;4.93;4.43;;;;;;;;;;4961850;28;20279;-87
2022/04/04 07:39:14;;;;;;;6.27;5.30;;;;;;;;;;5009680;28;20288;-89
2022/04/04 07:41:41;;;;;;;6.30;4.67;;;;;;;;;;5054355;28;20662;-88
2022/04/04 07:44:09;;;;;;;4.30;3.90;;;;;;;;;;5054124;28;20281;-88
2022/04/04 07:46:39;;;;;;;3.80;3.50;;;;;;;;;;5054045;28;20213;-88
2022/04/04 07:49:06;;;;;;;4.53;4.13;;;;;;;;;;5054397;28;20634;-89
2022/04/04 07:51:33;;;;;;;4.70;3.90;;;;;;;;;;5054053;28;20201;-89
2022/04/04 07:54:02;;;;;;;4.40;4.10;;;;;;;;;;5054243;28;20560;-88
2022/04/04 07:56:29;;;;;;;5.33;4.43;;;;;;;;;;5054136;28;20631;-88
2022/04/04 07:58:56;;;;;;;4.53;4.13;;;;;;;;;;5053675;28;20285;-87
2022/04/04 08:01:24;;;;;;;4.93;4.53;;;;;;;;;;5053790;28;20210;-87
2022/04/04 08:03:51;;;;;;;4.63;4.23;;;;;;;;;;5053182;28;20229;-87
2022/04/04 08:06:18;;;;;;;6.03;4.90;;;;;;;;;;5053536;28;20232;-88
2022/04/04 08:08:45;;;;;;;4.67;4.13;;;;;;;;;;5053429;28;20220;-87
2022/04/04 08:11:14;;;;;;;5.03;4.00;;;;;;;;;;5053609;28;20208;-87
2022/04/04 08:13:44;;;;;;;4.77;4.30;;;;;;;;;;5053248;28;20194;-87
2022/04/04 08:16:11;;;;;;;4.50;4.10;;;;;;;;;;5053602;28;20236;-88
2022/04/04 08:18:38;;;;;;;4.57;4.17;;;;;;;;;;5053516;28;20201;-86
2022/04/04 08:21:06;;;;;;;4.53;4.13;;;;;;;;;;5053259;28;20201;-87
2022/04/04 08:23:33;;;;;;;4.80;4.17;;;;;;;;;;5053111;28;20233;-87
2022/04/04 08:26:00;;;;;;;4.27;3.87;;;;;;;;;;5053453;28;20221;-87
2022/04/04 08:28:29;;;;;;;4.57;4.17;;;;;;;;;;5053115;28;20670;-87
2022/04/04 08:30:56;;;;;;;4.40;3.83;;;;;;;;;;5052799;28;20229;-87
2022/04/04 08:33:24;;;;;;;4.93;4.53;;;;;;;;;;5053357;28;20300;-85
2022/04/04 08:35:53;;;;;;;4.80;4.40;;;;;;;;;;5052752;28;20198;-84
2022/04/04 08:38:20;;;;;;;4.10;3.80;;;;;;;;;;5053086;28;20200;-85
2022/04/04 08:40:49;;;;;;;4.63;3.90;;;;;;;;;;5052840;28;20202;-84
2022/04/04 08:43:19;;;;;;;6.53;4.10;;;;;;;;;;5053017;28;20201;-84
2022/04/04 08:45:50;;;;;;;5.10;4.43;;;;;;;;;;5052883;28;20221;-85
2022/04/04 08:48:18;;;;;;;5.03;4.63;;;;;;;;;;5053267;28;20190;-87
2022/04/04 08:53:44;;;;;;;96.80;51.33;;;;;;;;;;5050604;28;20209;-92
2022/04/04 08:58:56;;;;;;;52.10;24.30;;;;;;;;;;5049557;28;20289;-88
2022/04/04 09:01:31;;;;;;;19.70;11.70;;;;;;;;;;5053031;28;20292;-87
2022/04/04 09:04:43;;;;;;;12.90;9.73;;;;;;;;;;5052607;28;20634;-87
2022/04/04 09:07:30;;;;;;;30.83;21.73;;;;;;;;;;5040979;28;20276;-90
2022/04/04 09:10:08;;;;;;;13.30;11.90;;;;;;;;;;5052799;28;20662;-89
2022/04/04 09:12:36;;;;;;;6.33;5.67;;;;;;;;;;5052869;28;20202;-89
2022/04/04 09:15:03;;;;;;;10.30;8.00;;;;;;;;;;5052413;28;20201;-89
2022/04/04 09:17:33;;;;;;;8.00;7.17;;;;;;;;;;5052489;28;20198;-88
2022/04/04 09:20:10;;;;;;;8.47;7.00;;;;;;;;;;5052696;28;20194;-89
2022/04/04 09:22:52;;;;;;;5.70;5.20;;;;;;;;;;5052462;28;20222;-89
2022/04/04 09:25:31;;;;;;;7.50;5.37;;;;;;;;;;5052273;28;20631;-87
2022/04/04 09:28:14;;;;;;;7.37;6.67;;;;;;;;;;5052079;28;20194;-88
2022/04/04 09:30:45;;;;;;;9.93;7.90;;;;;;;;;;5052292;28;20197;-89
2022/04/04 09:33:35;;;;;;;11.43;9.43;;;;;;;;;;5052597;28;20247;-89
2022/04/04 09:36:03;;;;;;;7.13;6.37;;;;;;;;;;5052026;28;20182;-88
2022/04/04 09:38:30;;;;;;;7.67;6.63;;;;;;;;;;5052136;28;20205;-85
2022/04/04 09:40:58;;;;;;;6.17;5.47;;;;;;;;;;5052158;28;20228;-88
2022/04/04 09:43:25;;;;;;;7.97;6.80;;;;;;;;;;5052107;28;20712;-89
2022/04/04 09:46:11;;;;;;;6.50;5.90;;;;;;;;;;5052102;28;20709;-88
2022/04/04 09:48:43;;;;;;;6.97;6.27;;;;;;;;;;5052075;28;20222;-88
2022/04/04 09:51:10;;;;;;;6.30;5.77;;;;;;;;;;5051998;28;20189;-88
2022/04/04 09:53:37;;;;;;;7.43;5.50;;;;;;;;;;5052274;28;20272;-85
2022/04/04 09:56:07;;;;;;;6.50;5.90;;;;;;;;;;5051805;28;20236;-84
2022/04/04 09:58:34;;;;;;;6.87;6.27;;;;;;;;;;5051763;28;20198;-83
2022/04/04 10:01:03;;;;;;;7.20;6.50;;;;;;;;;;5051928;28;20620;-84
2022/04/04 10:03:32;;;;;;;5.90;5.40;;;;;;;;;;5051608;28;20209;-85
2022/04/04 10:06:04;;;;;;;9.87;8.93;;;;;;;;;;5051781;28;20261;-85
2022/04/04 10:08:33;;;;;;;7.03;6.43;;;;;;;;;;5051970;28;20186;-88
2022/04/04 10:11:00;;;;;;;7.80;6.30;;;;;;;;;;5052102;28;20194;-89
2022/04/04 10:13:27;;;;;;;8.10;6.37;;;;;;;;;;5052630;28;20201;-88
2022/04/04 10:15:55;;;;;;;7.47;6.77;;;;;;;;;;5051413;28;20233;-87
2022/04/04 10:18:23;;;;;;;8.80;6.90;;;;;;;;;;5051795;28;20191;-86
2022/04/04 10:20:53;;;;;;;7.07;6.37;;;;;;;;;;5051412;28;20190;-85
2022/04/04 10:23:22;;;;;;;8.63;7.73;;;;;;;;;;5051719;28;20634;-88
2022/04/04 10:25:50;;;;;;;6.73;6.13;;;;;;;;;;5052434;28;20201;-84
2022/04/04 10:28:27;;;;;;;6.77;6.10;;;;;;;;;;5055579;28;20201;-84
2022/04/04 10:30:54;;;;;;;8.40;7.70;;;;;;;;;;5055179;28;20192;-85
2022/04/04 10:33:25;;;;;;;6.23;5.80;;;;;;;;;;5055275;28;20204;-85
2022/04/04 10:36:04;;;;;;;9.40;7.30;;;;;;;;;;5055080;28;20196;-85
2022/04/04 10:38:33;;;;;;;7.00;6.27;;;;;;;;;;5055414;28;20209;-86
2022/04/04 10:41:03;;;;;;;7.43;5.60;;;;;;;;;;5055308;28;20279;-86
2022/04/04 10:43:33;;;;;;;6.87;5.83;;;;;;;;;;5055057;28;20682;-85
2022/04/04 10:46:02;;;;;;;6.87;6.10;;;;;;;;;;5055053;28;20275;-88
2022/04/04 10:48:31;;;;;;;6.20;5.60;;;;;;;;;;5055497;28;20273;-87
2022/04/04 10:51:20;;;;;;;5.90;5.27;;;;;;;;;;5054821;28;20202;-87
2022/04/04 10:53:53;;;;;;;5.97;5.33;;;;;;;;;;5049546;28;20209;-86
2022/04/04 10:56:21;;;;;;;5.93;5.37;;;;;;;;;;5055072;28;20208;-86
2022/04/04 10:58:49;;;;;;;5.40;4.90;;;;;;;;;;5054816;28;21034;-86
2022/04/04 11:01:18;;;;;;;7.73;7.03;;;;;;;;;;5054755;28;20194;-87
2022/04/04 11:04:01;;;;;;;6.27;5.67;;;;;;;;;;5055093;28;20273;-86
2022/04/04 11:09:36;;;;;;;7.50;6.77;;;;;;;;;;5055341;28;20182;-86
2022/04/04 11:12:13;;;;;;;5.80;5.23;;;;;;;;;;5054613;28;20186;-87
2022/04/04 11:14:46;;;;;;;6.80;6.03;;;;;;;;;;5054714;28;20670;-86
2022/04/04 11:17:36;;;;;;;8.47;7.60;;;;;;;;;;5054610;28;20189;-86
2022/04/04 11:20:10;;;;;;;5.97;5.37;;;;;;;;;;5054834;28;20194;-85
2022/04/04 11:22:42;;;;;;;6.37;5.70;;;;;;;;;;5054148;28;20236;-86
2022/04/04 11:25:17;;;;;;;19.30;15.40;;;;;;;;;;5054422;28;20361;-86
2022/04/04 11:27:48;;;;;;;7.17;6.57;;;;;;;;;;5054706;28;20309;-87
2022/04/04 11:30:16;;;;;;;7.67;6.97;;;;;;;;;;5054369;28;20192;-87
2022/04/04 11:32:44;;;;;;;7.30;6.70;;;;;;;;;;5054123;28;20205;-87
2022/04/04 11:35:14;;;;;;;11.63;10.50;;;;;;;;;;5054042;28;20201;-86
2022/04/04 11:37:43;;;;;;;7.70;6.97;;;;;;;;;;5053591;28;20201;-86
2022/04/04 11:40:14;;;;;;;5.80;5.30;;;;;;;;;;5054059;28;20313;-86
2022/04/04 11:42:44;;;;;;;7.20;6.60;;;;;;;;;;5054157;28;20243;-86
2022/04/04 11:45:17;;;;;;;8.40;5.77;;;;;;;;;;5054328;28;20585;-87
2022/04/04 11:47:56;;;;;;;6.23;5.63;;;;;;;;;;5054085;28;20206;-87
2022/04/04 11:50:26;;;;;;;8.73;6.67;;;;;;;;;;5053889;28;20186;-87
2022/04/04 11:52:54;;;;;;;17.90;16.13;;;;;;;;;;5054001;28;20277;-86
2022/04/04 11:55:27;;;;;;;9.80;8.77;;;;;;;;;;5054194;28;20621;-88
2022/04/04 12:01:04;;;;;;;6.57;5.50;;;;;;;;;;5043818;28;20208;-89
2022/04/04 12:03:53;;;;;;;8.30;6.93;;;;;;;;;;5054018;28;20204;-88
2022/04/04 12:06:25;;;;;;;7.10;6.40;;;;;;;;;;5053613;28;20249;-89
2022/04/04 12:08:53;;;;;;;6.97;6.27;;;;;;;;;;5053703;28;20670;-86
2022/04/04 12:11:28;;;;;;;7.30;5.70;;;;;;;;;;5053748;28;20209;-88
2022/04/04 12:13:59;;;;;;;5.47;4.97;;;;;;;;;;5053531;28;20201;-88
2022/04/04 12:16:31;;;;;;;6.37;5.40;;;;;;;;;;5053720;28;20213;-88
2022/04/04 12:19:32;;;;;;;5.53;5.03;;;;;;;;;;5053370;28;20197;-87
2022/04/04 12:24:56;;;;;;;5.67;5.17;;;;;;;;;;5052715;28;20174;-88
2022/04/04 12:28:13;;;;;;;5.37;4.97;;;;;;;;;;5053452;28;20206;-88
2022/04/04 12:30:48;;;;;;;6.60;5.43;;;;;;;;;;5053419;28;20256;-90
2022/04/04 12:33:21;;;;;;;12.03;5.67;;;;;;;;;;5036282;28;20178;-88
2022/04/04 12:39:02;;;;;;;6.30;5.17;;;;;;;;;;4950689;29;20201;-88
2022/04/04 12:42:12;;;;;;;7.50;5.63;;;;;;;;;;4953691;29;20284;-87
2022/04/04 12:44:42;;;;;;;5.97;5.37;;;;;;;;;;4945472;29;20286;-88
2022/04/04 12:47:17;;;;;;;5.97;5.33;;;;;;;;;;4953261;29;20233;-89
2022/04/04 12:50:14;;;;;;;5.80;4.97;;;;;;;;;;4952367;28;20189;-89
2022/04/04 12:53:17;;;;;;;6.07;5.50;;;;;;;;;;4915483;29;20280;-87
2022/04/04 12:56:03;;;;;;;7.10;6.30;;;;;;;;;;4911882;29;20231;-89
2022/04/04 12:58:30;;;;;;;5.37;4.87;;;;;;;;;;4951882;29;20667;-86
2022/04/04 13:00:58;;;;;;;5.83;5.23;;;;;;;;;;4953183;29;20205;-88
2022/04/04 13:03:53;;;;;;;4.90;4.50;;;;;;;;;;4937116;29;20670;-89
2022/04/04 13:06:35;;;;;;;4.70;4.30;;;;;;;;;;4952690;29;20200;-88
2022/04/04 13:09:04;;;;;;;4.87;4.47;;;;;;;;;;4988316;28;20674;-85
2022/04/04 13:11:44;;;;;;;41.73;27.17;;;;;;;;;;5052800;28;20256;-85
2022/04/04 13:14:12;;;;;;;38.03;27.83;;;;;;;;;;5052406;28;20672;-86
2022/04/04 13:16:40;;;;;;;21.60;16.07;;;;;;;;;;5044606;28;20634;-86
2022/04/04 13:19:10;;;;;;;22.30;18.17;;;;;;;;;;5052463;28;20219;-87
2022/04/04 13:21:40;;;;;;;16.53;14.80;;;;;;;;;;5052435;28;20178;-86
2022/04/04 13:24:08;;;;;;;18.47;16.40;;;;;;;;;;5032393;28;20234;-89
2022/04/04 13:26:45;;;;;;;13.53;12.07;;;;;;;;;;5032348;28;20199;-87
2022/04/04 13:29:36;;;;;;;8.97;8.07;;;;;;;;;;5032355;28;20194;-87
2022/04/04 13:32:07;;;;;;;10.30;9.40;;;;;;;;;;5015849;28;20194;-90
2022/04/04 13:35:11;;;;;;;7.73;6.93;;;;;;;;;;5032305;28;20206;-89
2022/04/04 13:37:39;;;;;;;5.90;5.30;;;;;;;;;;5014878;28;20198;-88
2022/04/04 13:40:13;;;;;;;14.40;12.63;;;;;;;;;;5031762;28;20202;-88
2022/04/04 13:42:41;;;;;;;10.90;9.67;;;;;;;;;;5033535;28;20190;-89
2022/04/04 13:45:09;;;;;;;6.70;6.00;;;;;;;;;;5032073;28;20202;-88
2022/04/04 13:47:36;;;;;;;13.10;10.53;;;;;;;;;;5031966;28;20719;-88
2022/04/04 13:50:09;;;;;;;10.13;5.90;;;;;;;;;;5031893;28;20202;-88
2022/04/04 13:53:07;;;;;;;6.67;5.43;;;;;;;;;;5032039;28;20195;-88
2022/04/04 13:55:55;;;;;;;6.30;4.77;;;;;;;;;;5031157;28;20292;-88
2022/04/04 13:58:23;;;;;;;4.87;4.13;;;;;;;;;;5031620;28;20199;-86
2022/04/04 14:00:50;;;;;;;5.10;4.60;;;;;;;;;;5032860;28;20193;-86
2022/04/04 14:03:17;;;;;;;9.43;7.17;;;;;;;;;;5036136;28;20649;-86
2022/04/04 14:05:49;;;;;;;5.73;5.23;;;;;;;;;;5035462;28;20202;-86
2022/04/04 14:08:18;;;;;;;51.90;29.17;;;;;;;;;;5035801;28;20250;-86
2022/04/04 14:10:45;;;;;;;11.53;7.47;;;;;;;;;;5035487;28;20305;-86
2022/04/04 14:13:13;;;;;;;6.77;5.30;;;;;;;;;;5035771;28;20281;-86
2022/04/04 14:15:40;;;;;;;4.83;4.43;;;;;;;;;;5027913;28;20230;-85
2022/04/04 14:18:07;;;;;;;7.43;5.50;;;;;;;;;;5035659;28;20289;-87
2022/04/04 14:20:36;;;;;;;7.27;6.20;;;;;;;;;;5035638;28;20210;-86
2022/04/04 14:23:05;;;;;;;6.17;4.57;;;;;;;;;;5035295;28;20227;-86
2022/04/04 14:25:33;;;;;;;5.80;5.20;;;;;;;;;;5035938;28;20202;-87
2022/04/04 14:28:00;;;;;;;4.57;4.20;;;;;;;;;;5036035;28;20219;-86
2022/04/04 14:30:30;;;;;;;6.00;4.83;;;;;;;;;;5035679;28;20202;-87
2022/04/04 14:32:58;;;;;;;5.37;4.80;;;;;;;;;;5035256;28;20205;-86
2022/04/04 14:35:25;;;;;;;8.67;5.47;;;;;;;;;;5035526;28;20195;-86
2022/04/04 14:37:53;;;;;;;7.53;6.63;;;;;;;;;;5035232;28;20283;-85
2022/04/04 14:40:22;;;;;;;5.60;5.10;;;;;;;;;;5035204;28;20233;-85
2022/04/04 14:42:49;;;;;;;10.27;6.53;;;;;;;;;;5035148;28;20209;-86
2022/04/04 14:45:16;;;;;;;9.47;8.00;;;;;;;;;;5035333;28;20638;-86
2022/04/04 14:47:46;;;;;;;7.67;6.43;;;;;;;;;;5035007;28;20221;-87
2022/04/04 14:50:14;;;;;;;18.93;8.80;;;;;;;;;;5035081;28;20261;-88
2022/04/04 14:52:46;;;;;;;47.23;25.67;;;;;;;;;;5027444;28;20289;-88
2022/04/04 14:55:14;;;;;;;11.37;8.77;;;;;;;;;;5035281;28;20237;-88
2022/04/04 14:57:44;;;;;;;8.90;7.17;;;;;;;;;;5035210;28;20198;-89
2022/04/04 15:00:46;;;;;;;7.03;6.30;;;;;;;;;;5034912;28;20290;-90
2022/04/04 15:03:18;;;;;;;7.17;6.50;;;;;;;;;;4951653;29;20201;-88
2022/04/04 15:05:47;;;;;;;11.57;8.73;;;;;;;;;;5019175;28;20289;-87
2022/04/04 15:08:20;;;;;;;12.50;9.00;;;;;;;;;;5039689;28;20217;-87
2022/04/04 15:10:59;;;;;;;16.63;13.50;;;;;;;;;;5042038;28;20206;-89
2022/04/04 15:13:31;;;;;;;5.73;5.23;;;;;;;;;;5034455;28;20245;-90
2022/04/04 15:16:28;;;;;;;6.93;6.30;;;;;;;;;;5034942;28;20590;-89
2022/04/04 15:19:04;;;;;;;7.20;6.07;;;;;;;;;;5023588;28;20194;-90
2022/04/04 15:21:43;;;;;;;8.10;6.53;;;;;;;;;;5034745;28;20198;-87
2022/04/04 15:24:49;;;;;;;7.13;5.47;;;;;;;;;;5034629;28;20209;-87
2022/04/04 15:28:05;;;;;;;6.43;5.83;;;;;;;;;;5035362;28;20644;-88
2022/04/04 15:33:22;;;;;;;7.80;6.03;;;;;;;;;;4880707;29;20205;-90
2022/04/04 15:35:51;;;;;;;10.17;6.20;;;;;;;;;;4936339;29;20203;-89
2022/04/04 15:38:18;;;;;;;7.10;6.47;;;;;;;;;;4936345;29;20815;-89
2022/04/04 15:43:39;;;;;;;8.20;7.40;;;;;;;;;;4925401;29;20560;-90
2022/04/04 15:46:30;;;;;;;26.43;23.87;;;;;;;;;;4935780;29;20213;-88
2022/04/04 15:49:04;;;;;;;8.33;7.53;;;;;;;;;;4935681;29;20250;-89
2022/04/04 15:51:46;;;;;;;8.33;7.47;;;;;;;;;;4935598;29;20213;-90
2022/04/04 15:54:17;;;;;;;9.77;8.77;;;;;;;;;;4973041;28;20669;-88
2022/04/04 15:56:45;;;;;;;7.10;6.40;;;;;;;;;;5026307;28;20201;-89
2022/04/04 15:59:15;;;;;;;7.30;6.60;;;;;;;;;;5034171;28;20569;-90
2022/04/04 16:02:12;;;;;;;7.13;6.47;;;;;;;;;;5034394;28;20199;-90
2022/04/04 16:04:39;;;;;;;9.13;8.13;;;;;;;;;;5018775;28;20289;-92
2022/04/04 16:07:07;;;;;;;17.90;8.73;;;;;;;;;;5035183;28;20209;-91
2022/04/04 16:09:37;;;;;;;9.80;8.33;;;;;;;;;;5033848;28;20238;-89
2022/04/04 16:12:05;;;;;;;9.80;8.73;;;;;;;;;;5033755;28;20190;-88
2022/04/04 16:14:33;;;;;;;12.67;10.80;;;;;;;;;;5033508;28;20202;-89
2022/04/04 16:17:02;;;;;;;14.27;12.83;;;;;;;;;;5033530;28;20230;-91
2022/04/04 16:19:29;;;;;;;46.63;21.63;;;;;;;;;;5015950;28;20203;-88
2022/04/04 16:21:57;;;;;;;45.70;27.07;;;;;;;;;;5034673;28;20286;-87
2022/04/04 16:24:31;;;;;;;20.27;14.80;;;;;;;;;;5053281;28;20754;-88
2022/04/04 16:27:03;;;;;;;71.13;44.43;;;;;;;;;;5053523;28;20205;-87
2022/04/04 16:29:31;;;;;;;26.63;15.23;;;;;;;;;;5052952;28;20210;-88
2022/04/04 16:31:58;;;;;;;21.60;15.43;;;;;;;;;;5052991;28;20232;-86
2022/04/04 16:34:27;;;;;;;10.17;8.67;;;;;;;;;;5053147;28;20255;-88
2022/04/04 16:36:54;;;;;;;116.60;65.83;;;;;;;;;;5053120;28;20198;-87
2022/04/04 16:39:24;;;;;;;32.63;21.10;;;;;;;;;;5053217;28;20194;-87
2022/04/04 16:41:51;;;;;;;16.73;14.67;;;;;;;;;;5053381;28;20639;-87
2022/04/04 16:44:19;;;;;;;45.33;31.27;;;;;;;;;;5052795;28;20710;-87
2022/04/04 16:46:46;;;;;;;10.53;8.67;;;;;;;;;;5053069;28;20197;-87
2022/04/04 16:49:14;;;;;;;7.80;7.00;;;;;;;;;;5052873;28;20222;-88
2022/04/04 16:51:43;;;;;;;7.70;6.90;;;;;;;;;;5052990;28;20251;-87
2022/04/04 16:54:10;;;;;;;7.50;6.80;;;;;;;;;;5052660;28;20693;-86
2022/04/04 16:56:37;;;;;;;95.40;40.57;;;;;;;;;;5053120;28;20556;-87
2022/04/04 16:59:05;;;;;;;312.47;173.23;;;;;;;;;;5052697;28;20670;-87
2022/04/04 17:01:34;;;;;;;172.30;106.83;;;;;;;;;;5052667;28;20197;-87
2022/04/04 17:04:04;;;;;;;66.50;53.97;;;;;;;;;;5053143;28;20198;-88
2022/04/04 17:06:31;;;;;;;15.50;14.07;;;;;;;;;;5052658;28;20285;-87
2022/04/04 17:09:00;;;;;;;11.93;10.93;;;;;;;;;;5052693;28;20230;-88
2022/04/04 17:11:28;;;;;;;8.43;6.77;;;;;;;;;;5053006;28;20586;-88
2022/04/04 17:13:55;;;;;;;13.20;11.77;;;;;;;;;;5052928;28;20273;-88
2022/04/04 17:16:25;;;;;;;18.00;13.10;;;;;;;;;;5052987;28;20232;-87
2022/04/04 17:18:53;;;;;;;15.70;12.47;;;;;;;;;;5052818;28;20634;-87
2022/04/04 17:21:32;;;;;;;18.13;15.03;;;;;;;;;;5052713;28;20205;-88
2022/04/04 17:24:05;;;;;;;32.00;22.67;;;;;;;;;;5052511;28;20248;-88
2022/04/04 17:26:34;;;;;;;100.00;58.40;;;;;;;;;;5052716;28;20752;-88
2022/04/04 17:29:01;;;;;;;48.20;36.53;;;;;;;;;;5052629;28;20225;-89
2022/04/04 17:31:29;;;;;;;19.67;17.03;;;;;;;;;;5043356;28;20221;-89
2022/04/04 17:36:45;;;;;;;8.33;7.53;;;;;;;;;;5016941;28;20225;-88
2022/04/04 17:39:15;;;;;;;10.77;8.77;;;;;;;;;;5051794;28;20292;-88
2022/04/04 17:41:42;;;;;;;13.13;10.73;;;;;;;;;;5045255;28;20676;-88
2022/04/04 17:44:10;;;;;;;23.33;11.87;;;;;;;;;;5052291;28;20197;-87
2022/04/04 17:46:37;;;;;;;24.97;15.70;;;;;;;;;;5052060;28;20252;-88
2022/04/04 17:49:05;;;;;;;23.90;15.87;;;;;;;;;;5046715;28;20693;-88
2022/04/04 17:51:32;;;;;;;27.10;18.40;;;;;;;;;;5051855;28;20205;-87
2022/04/04 17:53:59;;;;;;;12.73;9.00;;;;;;;;;;5051624;28;20297;-88
2022/04/04 17:56:28;;;;;;;11.23;8.20;;;;;;;;;;5051868;28;20205;-87
2022/04/04 17:58:56;;;;;;;10.50;7.67;;;;;;;;;;5051486;28;20190;-87
2022/04/04 18:01:23;;;;;;;12.90;10.57;;;;;;;;;;5052109;28;20202;-88
2022/04/04 18:03:50;;;;;;;15.33;12.70;;;;;;;;;;5051677;28;20236;-88
2022/04/04 18:06:18;;;;;;;9.80;8.53;;;;;;;;;;5049603;28;20574;-86
2022/04/04 18:08:47;;;;;;;9.40;8.33;;;;;;;;;;5044756;28;20222;-88
2022/04/04 18:11:14;;;;;;;16.67;11.33;;;;;;;;;;5051587;28;20621;-86
2022/04/04 18:13:43;;;;;;;10.93;8.67;;;;;;;;;;5043718;28;20204;-88
2022/04/04 18:16:11;;;;;;;15.40;12.00;;;;;;;;;;5051589;28;20208;-88
2022/04/04 18:18:38;;;;;;;11.37;10.03;;;;;;;;;;5051819;28;20198;-87
2022/04/04 18:21:07;;;;;;;10.23;8.93;;;;;;;;;;5051193;28;20281;-87
2022/04/04 18:23:34;;;;;;;10.73;8.37;;;;;;;;;;5051002;28;20324;-87
2022/04/04 18:26:01;;;;;;;10.73;9.40;;;;;;;;;;5051671;28;20200;-87
2022/04/04 18:28:28;;;;;;;12.57;7.90;;;;;;;;;;5051415;28;20228;-88
2022/04/04 18:30:57;;;;;;;12.93;10.70;;;;;;;;;;5051720;28;20210;-88
2022/04/04 18:33:24;;;;;;;13.53;10.33;;;;;;;;;;5051416;28;20190;-88
2022/04/04 18:35:52;;;;;;;12.17;9.63;;;;;;;;;;5051240;28;20665;-88
2022/04/04 18:38:19;;;;;;;9.57;8.60;;;;;;;;;;5051691;28;20196;-88
2022/04/04 18:40:47;;;;;;;7.00;6.33;;;;;;;;;;5051570;28;20207;-87
2022/04/04 18:43:14;;;;;;;7.20;6.47;;;;;;;;;;5050846;28;20194;-88
2022/04/04 18:45:41;;;;;;;8.07;5.87;;;;;;;;;;5051161;28;20221;-87
2022/04/04 18:48:10;;;;;;;6.63;5.80;;;;;;;;;;5051967;28;20205;-87
2022/04/04 18:50:39;;;;;;;186.60;81.43;;;;;;;;;;5054584;28;20198;-88
2022/04/04 18:53:07;;;;;;;358.33;177.60;;;;;;;;;;5054696;28;20200;-87
2022/04/04 18:55:34;;;;;;;96.30;51.80;;;;;;;;;;5054708;28;20201;-88
2022/04/04 18:58:02;;;;;;;24.83;15.20;;;;;;;;;;5055147;28;20281;-87
2022/04/04 19:00:29;;;;;;;15.10;10.50;;;;;;;;;;5054548;28;20205;-87
2022/04/04 19:02:56;;;;;;;27.03;17.20;;;;;;;;;;5054275;28;20208;-87
2022/04/04 19:05:25;;;;;;;59.37;33.70;;;;;;;;;;5054963;28;20548;-87
2022/04/04 19:07:53;;;;;;;29.23;18.70;;;;;;;;;;5054778;28;20198;-87
2022/04/04 19:10:20;;;;;;;74.37;42.97;;;;;;;;;;5054601;28;20225;-87
2022/04/04 19:12:47;;;;;;;40.83;24.70;;;;;;;;;;5054458;28;20221;-88
2022/04/04 19:15:15;;;;;;;71.67;37.67;;;;;;;;;;5054479;28;20570;-87
2022/04/04 19:17:42;;;;;;;37.97;22.40;;;;;;;;;;5054275;28;20198;-87
2022/04/04 19:20:10;;;;;;;20.30;16.20;;;;;;;;;;5054364;28;20194;-87
2022/04/04 19:22:39;;;;;;;20.27;16.07;;;;;;;;;;5054107;28;20241;-87
2022/04/04 19:25:08;;;;;;;21.53;19.23;;;;;;;;;;5054343;28;20204;-88
2022/04/04 19:27:35;;;;;;;18.70;15.77;;;;;;;;;;5053856;28;20198;-87
2022/04/04 19:30:03;;;;;;;22.33;16.50;;;;;;;;;;5054028;28;20249;-87
2022/04/04 19:32:30;;;;;;;18.33;12.87;;;;;;;;;;5054071;28;20202;-88
2022/04/04 19:34:58;;;;;;;16.80;10.00;;;;;;;;;;5054044;28;20202;-87
2022/04/04 19:37:25;;;;;;;10.43;9.33;;;;;;;;;;5054171;28;20226;-88
2022/04/04 19:39:54;;;;;;;15.67;13.17;;;;;;;;;;5053979;28;20884;-88
2022/04/04 19:42:21;;;;;;;15.07;13.60;;;;;;;;;;5054023;28;20201;-89
2022/04/04 19:45:02;;;;;;;11.90;10.63;;;;;;;;;;5054461;28;20206;-89
2022/04/04 19:47:30;;;;;;;25.17;20.63;;;;;;;;;;5052840;28;20205;-88
2022/04/04 19:49:57;;;;;;;10.70;9.63;;;;;;;;;;5047099;28;20217;-87
2022/04/04 19:52:24;;;;;;;10.17;8.87;;;;;;;;;;5052927;28;20201;-88
2022/04/04 19:54:54;;;;;;;10.63;8.27;;;;;;;;;;5053372;28;20208;-88
2022/04/04 19:57:22;;;;;;;8.47;7.57;;;;;;;;;;5053246;28;20190;-87
2022/04/04 19:59:53;;;;;;;8.97;7.57;;;;;;;;;;5052288;28;20198;-89
2022/04/04 20:02:21;;;;;;;8.83;7.93;;;;;;;;;;5053414;28;20186;-88